Time;durP1;ratioP1;P1;durP2;ratioP2;P2;SDS_P1;SDS_P2;PMS_P1;PMS_P2;Temp;Humidity;BMP_temperature;BMP_pressure;BME280_temperature;BME280_humidity;BME280_pressure;Samples;Min_cycle;Max_cycle;Signal;HPM_P1;HPM_P2
2024/03/15 00:00:20;;;;;;;4.03;3.63;;;;;;;;;;5018169;28;20176;-63
2024/03/15 00:02:46;;;;;;;3.77;3.20;;;;;;;;;;5017135;28;20529;-66
2024/03/15 00:05:12;;;;;;;4.47;3.20;;;;;;;;;;5012262;28;20185;-64
2024/03/15 00:07:39;;;;;;;3.33;3.03;;;;;;;;;;5014184;28;20193;-67
2024/03/15 00:10:05;;;;;;;3.67;3.20;;;;;;;;;;5015693;28;20182;-65
2024/03/15 00:12:33;;;;;;;3.40;3.10;;;;;;;;;;5017689;28;20243;-66
2024/03/15 00:14:59;;;;;;;4.30;2.93;;;;;;;;;;5013632;28;20604;-68
2024/03/15 00:17:27;;;;;;;3.73;3.13;;;;;;;;;;5020309;28;20223;-65
2024/03/15 00:19:53;;;;;;;3.00;2.63;;;;;;;;;;5015944;28;20658;-66
2024/03/15 00:22:21;;;;;;;2.97;2.67;;;;;;;;;;5018917;28;20242;-66
2024/03/15 00:24:47;;;;;;;3.60;2.83;;;;;;;;;;5016993;28;20190;-64
2024/03/15 00:27:13;;;;;;;3.33;3.03;;;;;;;;;;5021637;28;20219;-67
2024/03/15 00:29:39;;;;;;;3.40;3.00;;;;;;;;;;5017079;28;20639;-69
2024/03/15 00:32:06;;;;;;;3.83;3.33;;;;;;;;;;5013041;28;20186;-66
2024/03/15 00:34:33;;;;;;;3.63;3.10;;;;;;;;;;5023313;28;20193;-67
2024/03/15 00:37:01;;;;;;;3.43;3.13;;;;;;;;;;5018869;28;20207;-65
2024/03/15 00:39:27;;;;;;;4.03;3.50;;;;;;;;;;5020724;28;20233;-65
2024/03/15 00:41:53;;;;;;;4.73;3.30;;;;;;;;;;5016624;28;20683;-68
2024/03/15 00:44:19;;;;;;;3.60;3.17;;;;;;;;;;5017334;28;20572;-64
2024/03/15 00:46:45;;;;;;;8.00;3.90;;;;;;;;;;5009618;28;20264;-59
2024/03/15 00:49:11;;;;;;;3.90;2.97;;;;;;;;;;5018929;28;20289;-58
2024/03/15 00:51:37;;;;;;;4.00;3.10;;;;;;;;;;5016583;28;20166;-58
2024/03/15 00:54:04;;;;;;;3.90;3.03;;;;;;;;;;5026408;28;20305;-58
2024/03/15 00:56:30;;;;;;;3.23;2.93;;;;;;;;;;5021370;28;20266;-58
2024/03/15 00:58:56;;;;;;;4.17;3.10;;;;;;;;;;5017842;28;20179;-59
2024/03/15 01:01:22;;;;;;;3.83;3.13;;;;;;;;;;5013192;28;20542;-59
2024/03/15 01:03:49;;;;;;;3.97;3.07;;;;;;;;;;5021788;28;20541;-58
2024/03/15 01:06:15;;;;;;;4.50;3.50;;;;;;;;;;5016989;28;20234;-58
2024/03/15 01:08:41;;;;;;;4.27;3.37;;;;;;;;;;5019475;28;20167;-58
2024/03/15 01:11:07;;;;;;;3.47;3.17;;;;;;;;;;5011068;28;20308;-59
2024/03/15 01:13:34;;;;;;;4.57;2.87;;;;;;;;;;5016986;28;20581;-58
2024/03/15 01:16:00;;;;;;;4.97;4.23;;;;;;;;;;5018991;28;20217;-59
2024/03/15 01:18:26;;;;;;;3.87;3.20;;;;;;;;;;5021231;28;20185;-58
2024/03/15 01:20:52;;;;;;;3.90;2.97;;;;;;;;;;5014876;28;20447;-58
2024/03/15 01:23:18;;;;;;;3.30;3.00;;;;;;;;;;5014002;28;20694;-58
2024/03/15 01:25:48;;;;;;;4.53;2.77;;;;;;;;;;5020779;28;20712;-58
2024/03/15 01:28:14;;;;;;;4.93;2.97;;;;;;;;;;5020905;28;20240;-58
2024/03/15 01:30:42;;;;;;;4.93;3.00;;;;;;;;;;5018690;28;20244;-58
2024/03/15 01:33:10;;;;;;;4.83;2.93;;;;;;;;;;5018193;28;20232;-59
2024/03/15 01:35:36;;;;;;;3.73;2.87;;;;;;;;;;5018243;28;20585;-58
2024/03/15 01:38:02;;;;;;;3.70;3.40;;;;;;;;;;5019547;28;20190;-58
2024/03/15 01:40:29;;;;;;;4.03;3.10;;;;;;;;;;5019201;28;20430;-58
2024/03/15 01:42:55;;;;;;;8.10;3.37;;;;;;;;;;5015885;28;20198;-58
2024/03/15 01:45:21;;;;;;;3.57;3.00;;;;;;;;;;5014998;28;20224;-59
2024/03/15 01:47:47;;;;;;;4.60;3.17;;;;;;;;;;5017368;28;20177;-58
2024/03/15 01:50:13;;;;;;;3.33;3.03;;;;;;;;;;5014489;28;20193;-58
2024/03/15 01:52:41;;;;;;;4.60;3.03;;;;;;;;;;5022577;28;20554;-58
2024/03/15 01:55:08;;;;;;;4.70;3.43;;;;;;;;;;5013328;28;20188;-59
2024/03/15 01:57:34;;;;;;;4.37;2.80;;;;;;;;;;5025141;28;20205;-58
2024/03/15 02:00:00;;;;;;;4.17;3.37;;;;;;;;;;5014505;28;20501;-58
2024/03/15 02:02:32;;;;;;;5.00;3.10;;;;;;;;;;5023864;28;20186;-58
2024/03/15 02:04:58;;;;;;;4.60;3.13;;;;;;;;;;5022773;28;20629;-59
2024/03/15 02:07:28;;;;;;;3.50;3.20;;;;;;;;;;5019814;28;20653;-58
2024/03/15 02:09:58;;;;;;;3.73;2.93;;;;;;;;;;5022605;28;20192;-59
2024/03/15 02:12:24;;;;;;;3.60;3.13;;;;;;;;;;5020539;28;20197;-58
2024/03/15 02:14:50;;;;;;;4.20;3.00;;;;;;;;;;5025273;28;20650;-59
2024/03/15 02:17:16;;;;;;;4.37;2.93;;;;;;;;;;5018252;28;20554;-58
2024/03/15 02:19:44;;;;;;;4.37;2.90;;;;;;;;;;5021882;28;20691;-59
2024/03/15 02:22:10;;;;;;;3.47;3.00;;;;;;;;;;5012790;28;20307;-58
2024/03/15 02:24:36;;;;;;;3.03;2.73;;;;;;;;;;5017558;28;20181;-58
2024/03/15 02:27:03;;;;;;;4.37;3.23;;;;;;;;;;5014236;28;20178;-59
2024/03/15 02:29:29;;;;;;;6.47;3.10;;;;;;;;;;5023941;28;20223;-58
2024/03/15 02:31:55;;;;;;;3.50;2.93;;;;;;;;;;5020946;28;20716;-58
2024/03/15 02:34:21;;;;;;;4.90;3.47;;;;;;;;;;5026014;28;20625;-59
2024/03/15 02:36:47;;;;;;;4.17;2.83;;;;;;;;;;5020525;28;20201;-59
2024/03/15 02:39:16;;;;;;;7.77;3.87;;;;;;;;;;5025024;28;20190;-58
2024/03/15 02:41:43;;;;;;;4.27;2.90;;;;;;;;;;5015910;28;20220;-58
2024/03/15 02:44:10;;;;;;;3.77;2.97;;;;;;;;;;5025351;28;20559;-59
2024/03/15 02:46:36;;;;;;;3.60;2.90;;;;;;;;;;5019279;28;20186;-58
2024/03/15 02:49:03;;;;;;;3.37;2.80;;;;;;;;;;5019350;28;20189;-59
2024/03/15 02:51:29;;;;;;;3.97;3.03;;;;;;;;;;5017009;28;20204;-58
2024/03/15 02:53:55;;;;;;;4.10;3.70;;;;;;;;;;5028063;28;20629;-58
2024/03/15 02:56:21;;;;;;;3.03;2.83;;;;;;;;;;5018992;28;20605;-58
2024/03/15 02:58:47;;;;;;;4.87;3.00;;;;;;;;;;5018806;28;20281;-58
2024/03/15 03:01:14;;;;;;;3.67;2.87;;;;;;;;;;5020880;28;20255;-58
2024/03/15 03:03:40;;;;;;;5.73;3.50;;;;;;;;;;5021071;28;20184;-58
2024/03/15 03:06:06;;;;;;;4.37;2.97;;;;;;;;;;5018275;28;20662;-59
2024/03/15 03:08:36;;;;;;;3.73;3.30;;;;;;;;;;5017563;28;20179;-59
2024/03/15 03:11:06;;;;;;;4.33;2.97;;;;;;;;;;5011023;28;20175;-59
2024/03/15 03:13:36;;;;;;;4.40;2.83;;;;;;;;;;5023142;28;20188;-58
2024/03/15 03:16:02;;;;;;;3.60;2.63;;;;;;;;;;5025387;28;20202;-59
2024/03/15 03:18:28;;;;;;;4.37;3.47;;;;;;;;;;5027949;28;20289;-58
2024/03/15 03:20:55;;;;;;;3.13;2.83;;;;;;;;;;5018804;28;20226;-59
2024/03/15 03:23:22;;;;;;;3.33;2.80;;;;;;;;;;5024842;28;20187;-59
2024/03/15 03:25:48;;;;;;;3.37;2.83;;;;;;;;;;5014262;28;20217;-59
2024/03/15 03:28:14;;;;;;;3.87;2.70;;;;;;;;;;5017529;28;20243;-58
2024/03/15 03:30:41;;;;;;;3.30;3.00;;;;;;;;;;5013709;28;20199;-59
2024/03/15 03:33:07;;;;;;;4.13;3.10;;;;;;;;;;5024229;28;20188;-59
2024/03/15 03:35:33;;;;;;;3.77;3.20;;;;;;;;;;5022316;28;20520;-59
2024/03/15 03:37:59;;;;;;;4.27;2.93;;;;;;;;;;5020874;28;20627;-59
2024/03/15 03:40:26;;;;;;;4.50;3.30;;;;;;;;;;5020281;28;20177;-58
2024/03/15 03:42:52;;;;;;;4.77;2.97;;;;;;;;;;5014490;28;20203;-59
2024/03/15 03:45:19;;;;;;;4.40;2.93;;;;;;;;;;5016993;28;20169;-58
2024/03/15 03:47:49;;;;;;;3.33;3.03;;;;;;;;;;5015943;28;20192;-58
2024/03/15 03:50:15;;;;;;;3.70;3.20;;;;;;;;;;5020703;28;20194;-59
2024/03/15 03:52:41;;;;;;;5.77;3.47;;;;;;;;;;5016224;28;20191;-59
2024/03/15 03:55:08;;;;;;;3.50;3.10;;;;;;;;;;5019743;28;20289;-58
2024/03/15 03:57:35;;;;;;;3.20;2.90;;;;;;;;;;5020362;28;20208;-59
2024/03/15 04:00:05;;;;;;;3.43;3.10;;;;;;;;;;5012427;28;20207;-59
2024/03/15 04:02:31;;;;;;;2.97;2.50;;;;;;;;;;5011538;28;20658;-59
2024/03/15 04:04:57;;;;;;;7.20;3.43;;;;;;;;;;5014618;28;20186;-59
2024/03/15 04:07:30;;;;;;;3.07;2.73;;;;;;;;;;5017323;28;20631;-59
2024/03/15 04:09:56;;;;;;;5.33;3.13;;;;;;;;;;5013580;28;20276;-58
2024/03/15 04:12:22;;;;;;;5.90;3.17;;;;;;;;;;5029671;28;20719;-58
2024/03/15 04:14:51;;;;;;;3.57;3.23;;;;;;;;;;5018109;28;20654;-59
2024/03/15 04:17:17;;;;;;;3.67;3.37;;;;;;;;;;5020550;28;20213;-59
2024/03/15 04:19:43;;;;;;;4.33;3.27;;;;;;;;;;5019096;28;20497;-59
2024/03/15 04:22:13;;;;;;;5.50;3.67;;;;;;;;;;5021089;28;20539;-59
2024/03/15 04:24:39;;;;;;;5.00;3.30;;;;;;;;;;5014477;28;20345;-58
2024/03/15 04:27:08;;;;;;;3.77;3.13;;;;;;;;;;5021125;28;20198;-59
2024/03/15 04:29:35;;;;;;;3.67;3.00;;;;;;;;;;5018370;28;20174;-59
2024/03/15 04:32:02;;;;;;;3.67;3.07;;;;;;;;;;5019161;28;20184;-58
2024/03/15 04:34:28;;;;;;;3.20;2.90;;;;;;;;;;5024075;28;20215;-59
2024/03/15 04:36:54;;;;;;;3.07;2.73;;;;;;;;;;5013537;28;20257;-58
2024/03/15 04:39:21;;;;;;;3.07;2.77;;;;;;;;;;5017493;28;20210;-59
2024/03/15 04:41:47;;;;;;;3.60;2.83;;;;;;;;;;5025425;28;20500;-59
2024/03/15 04:44:14;;;;;;;4.67;3.60;;;;;;;;;;5021760;28;20202;-58
2024/03/15 04:46:40;;;;;;;3.30;3.00;;;;;;;;;;5016666;28;20184;-58
2024/03/15 04:49:07;;;;;;;3.20;2.90;;;;;;;;;;5019686;28;20686;-59
2024/03/15 04:51:33;;;;;;;4.93;3.17;;;;;;;;;;5022968;28;20595;-58
2024/03/15 04:53:59;;;;;;;3.13;2.83;;;;;;;;;;5021929;28;20209;-58
2024/03/15 04:56:25;;;;;;;4.97;3.20;;;;;;;;;;5020391;28;20200;-58
2024/03/15 04:58:51;;;;;;;4.67;3.43;;;;;;;;;;5017649;28;20217;-58
2024/03/15 05:01:17;;;;;;;3.77;3.00;;;;;;;;;;5023603;28;20667;-59
2024/03/15 05:03:43;;;;;;;3.83;3.03;;;;;;;;;;5015309;28;20585;-59
2024/03/15 05:06:11;;;;;;;6.50;3.40;;;;;;;;;;5009017;28;20210;-59
2024/03/15 05:08:37;;;;;;;3.50;3.20;;;;;;;;;;5018056;28;20194;-59
2024/03/15 05:11:03;;;;;;;3.87;2.90;;;;;;;;;;5011686;28;20186;-58
2024/03/15 05:13:29;;;;;;;6.23;3.40;;;;;;;;;;5008924;28;20185;-58
2024/03/15 05:15:55;;;;;;;4.10;3.37;;;;;;;;;;5012855;28;20219;-59
2024/03/15 05:18:21;;;;;;;3.87;2.83;;;;;;;;;;5009880;28;20324;-59
2024/03/15 05:20:50;;;;;;;5.73;3.00;;;;;;;;;;5014128;28;20545;-58
2024/03/15 05:23:17;;;;;;;3.47;3.00;;;;;;;;;;5013148;28;20215;-59
2024/03/15 05:25:43;;;;;;;6.33;3.60;;;;;;;;;;5011845;28;20215;-58
2024/03/15 05:28:09;;;;;;;5.23;3.27;;;;;;;;;;5015565;28;20250;-67
2024/03/15 05:30:36;;;;;;;4.93;3.33;;;;;;;;;;5017472;28;20187;-67
2024/03/15 05:33:02;;;;;;;3.20;2.83;;;;;;;;;;5018903;28;20266;-66
2024/03/15 05:35:28;;;;;;;5.50;3.17;;;;;;;;;;5022807;28;20192;-66
2024/03/15 05:37:54;;;;;;;5.93;2.80;;;;;;;;;;5022265;28;20279;-63
2024/03/15 05:40:25;;;;;;;5.00;3.27;;;;;;;;;;5023783;28;20317;-67
2024/03/15 05:42:53;;;;;;;4.33;3.07;;;;;;;;;;5023205;28;20214;-59
2024/03/15 05:45:21;;;;;;;4.73;2.83;;;;;;;;;;5013111;28;20290;-66
2024/03/15 05:47:47;;;;;;;3.50;2.87;;;;;;;;;;5020451;28;20265;-66
2024/03/15 05:50:13;;;;;;;5.63;3.10;;;;;;;;;;5016901;28;20190;-66
2024/03/15 05:52:39;;;;;;;6.47;2.93;;;;;;;;;;5022719;28;20224;-66
2024/03/15 05:55:05;;;;;;;6.00;3.27;;;;;;;;;;5014736;28;20183;-66
2024/03/15 05:57:31;;;;;;;6.57;3.90;;;;;;;;;;5021241;28;20641;-66
2024/03/15 06:00:03;;;;;;;3.70;2.60;;;;;;;;;;5021961;28;20178;-65
2024/03/15 06:02:29;;;;;;;2.90;2.60;;;;;;;;;;5024253;28;20200;-66
2024/03/15 06:04:55;;;;;;;5.30;3.67;;;;;;;;;;5021447;28;20595;-66
2024/03/15 06:07:21;;;;;;;3.53;2.70;;;;;;;;;;5025382;28;20237;-66
2024/03/15 06:09:47;;;;;;;5.50;2.87;;;;;;;;;;5024962;28;20221;-64
2024/03/15 06:12:13;;;;;;;3.87;2.93;;;;;;;;;;5015063;28;20181;-66
2024/03/15 06:14:39;;;;;;;4.53;2.73;;;;;;;;;;5010801;28;20551;-67
2024/03/15 06:17:06;;;;;;;4.30;3.03;;;;;;;;;;5016805;28;20207;-66
2024/03/15 06:19:33;;;;;;;3.60;2.70;;;;;;;;;;5019340;28;20396;-65
2024/03/15 06:21:59;;;;;;;4.83;3.07;;;;;;;;;;5020829;28;20540;-65
2024/03/15 06:24:25;;;;;;;4.10;3.03;;;;;;;;;;5018916;28;20602;-67
2024/03/15 06:26:54;;;;;;;4.77;3.17;;;;;;;;;;5022055;28;20183;-67
2024/03/15 06:29:23;;;;;;;4.23;2.97;;;;;;;;;;5017960;28;20297;-65
2024/03/15 06:31:49;;;;;;;2.60;2.40;;;;;;;;;;5014609;28;20194;-64
2024/03/15 06:34:22;;;;;;;4.47;3.00;;;;;;;;;;5019134;28;20206;-64
2024/03/15 06:36:53;;;;;;;3.47;2.83;;;;;;;;;;5022581;28;20569;-65
2024/03/15 06:42:20;;;;;;;2.97;2.67;;;;;;;;;;5017738;28;20181;-58
2024/03/15 06:44:50;;;;;;;4.50;2.97;;;;;;;;;;5022808;28;20173;-58
2024/03/15 06:47:16;;;;;;;3.17;2.60;;;;;;;;;;5022820;28;20797;-58
2024/03/15 06:49:54;;;;;;;5.27;2.47;;;;;;;;;;5018112;28;20194;-57
2024/03/15 06:52:36;;;;;;;3.50;2.93;;;;;;;;;;5021712;28;20527;-57
2024/03/15 06:55:03;;;;;;;3.87;2.80;;;;;;;;;;5023104;28;20298;-56
2024/03/15 06:57:29;;;;;;;4.10;2.43;;;;;;;;;;5018905;28;20198;-57
2024/03/15 06:59:55;;;;;;;4.00;2.60;;;;;;;;;;5014691;28;20172;-56
2024/03/15 07:02:21;;;;;;;3.70;2.63;;;;;;;;;;5022738;28;20182;-55
2024/03/15 07:04:50;;;;;;;3.30;2.87;;;;;;;;;;5021563;28;20289;-57
2024/03/15 07:07:20;;;;;;;3.30;2.43;;;;;;;;;;5022479;28;20168;-57
2024/03/15 07:09:47;;;;;;;4.13;3.10;;;;;;;;;;5020492;28;20166;-56
2024/03/15 07:12:16;;;;;;;3.73;2.90;;;;;;;;;;5021606;28;20508;-57
2024/03/15 07:14:42;;;;;;;3.53;2.83;;;;;;;;;;5018612;28;20187;-55
2024/03/15 07:17:09;;;;;;;6.10;3.40;;;;;;;;;;5017944;28;20200;-56
2024/03/15 07:19:39;;;;;;;6.60;3.33;;;;;;;;;;5023136;28;20248;-56
2024/03/15 07:22:05;;;;;;;3.70;2.87;;;;;;;;;;5018790;28;20226;-54
2024/03/15 07:24:32;;;;;;;3.87;2.87;;;;;;;;;;5016106;28;20187;-55
2024/03/15 07:26:58;;;;;;;5.00;3.20;;;;;;;;;;5017876;28;20187;-56
2024/03/15 07:29:24;;;;;;;4.17;2.67;;;;;;;;;;5015532;28;20189;-57
2024/03/15 07:31:50;;;;;;;3.37;2.80;;;;;;;;;;5017654;28;20587;-56
2024/03/15 07:34:16;;;;;;;5.13;3.13;;;;;;;;;;5014807;28;20212;-57
2024/03/15 07:36:44;;;;;;;4.50;3.20;;;;;;;;;;5012367;28;20234;-57
2024/03/15 07:39:11;;;;;;;3.67;3.10;;;;;;;;;;5013069;28;20211;-57
2024/03/15 07:41:38;;;;;;;4.97;2.87;;;;;;;;;;5015118;28;20224;-57
2024/03/15 07:44:04;;;;;;;4.97;2.87;;;;;;;;;;5011098;28;20210;-57
2024/03/15 07:46:31;;;;;;;4.17;3.17;;;;;;;;;;5007827;28;20208;-57
2024/03/15 07:49:00;;;;;;;4.40;2.97;;;;;;;;;;5010227;28;20196;-59
2024/03/15 07:51:27;;;;;;;6.13;3.20;;;;;;;;;;5009740;28;20192;-58
2024/03/15 07:53:53;;;;;;;7.13;3.30;;;;;;;;;;5015029;28;20196;-59
2024/03/15 07:56:21;;;;;;;4.13;2.90;;;;;;;;;;5025161;28;20225;-58
2024/03/15 07:58:48;;;;;;;5.20;3.17;;;;;;;;;;5024228;28;20210;-58
2024/03/15 08:01:14;;;;;;;2.77;2.57;;;;;;;;;;5014186;28;20180;-59
2024/03/15 08:03:41;;;;;;;3.70;3.00;;;;;;;;;;5012296;28;20253;-57
2024/03/15 08:06:07;;;;;;;4.63;2.83;;;;;;;;;;5015223;28;20180;-58
2024/03/15 08:08:33;;;;;;;3.70;3.20;;;;;;;;;;5023218;28;20611;-57
2024/03/15 08:11:00;;;;;;;4.40;3.17;;;;;;;;;;5023891;28;20980;-58
2024/03/15 08:13:27;;;;;;;6.37;3.47;;;;;;;;;;5025917;28;20658;-58
2024/03/15 08:15:59;;;;;;;4.07;3.10;;;;;;;;;;5008234;28;20181;-59
2024/03/15 08:18:28;;;;;;;3.90;3.03;;;;;;;;;;5015281;28;20189;-58
2024/03/15 08:20:55;;;;;;;6.43;3.17;;;;;;;;;;5010412;28;20218;-58
2024/03/15 08:23:23;;;;;;;5.00;3.23;;;;;;;;;;5015087;28;20167;-57
2024/03/15 08:25:49;;;;;;;3.00;2.70;;;;;;;;;;5010967;28;20568;-57
2024/03/15 08:28:15;;;;;;;5.10;3.70;;;;;;;;;;5021633;28;20183;-58
2024/03/15 08:30:43;;;;;;;4.87;3.37;;;;;;;;;;5008870;28;20183;-58
2024/03/15 08:33:10;;;;;;;4.70;3.20;;;;;;;;;;5016529;28;20652;-58
2024/03/15 08:35:36;;;;;;;5.90;3.57;;;;;;;;;;5018006;28;20203;-58
2024/03/15 08:38:02;;;;;;;3.70;3.40;;;;;;;;;;5019280;28;20197;-57
2024/03/15 08:40:28;;;;;;;4.93;3.57;;;;;;;;;;5018794;28;20175;-57
2024/03/15 08:42:54;;;;;;;5.20;3.70;;;;;;;;;;5010441;28;20203;-58
2024/03/15 08:45:21;;;;;;;5.57;3.70;;;;;;;;;;5008035;28;20270;-57
2024/03/15 08:47:48;;;;;;;5.53;3.40;;;;;;;;;;5013316;28;20270;-58
2024/03/15 08:50:14;;;;;;;3.73;3.43;;;;;;;;;;5019262;28;20222;-56
2024/03/15 08:52:40;;;;;;;3.83;3.33;;;;;;;;;;5017718;28;20169;-58
2024/03/15 08:55:09;;;;;;;4.37;3.83;;;;;;;;;;5012465;28;20546;-57
2024/03/15 08:57:36;;;;;;;3.53;2.93;;;;;;;;;;5014208;28;20274;-58
2024/03/15 09:00:06;;;;;;;4.00;3.50;;;;;;;;;;5012201;28;20196;-57
2024/03/15 09:02:32;;;;;;;18.70;3.77;;;;;;;;;;5010588;28;20243;-58
2024/03/15 09:04:58;;;;;;;5.43;3.33;;;;;;;;;;5010798;28;20530;-56
2024/03/15 09:07:24;;;;;;;5.27;3.67;;;;;;;;;;5026138;28;20170;-57
2024/03/15 09:09:51;;;;;;;4.40;3.40;;;;;;;;;;5022928;28;20177;-58
2024/03/15 09:12:18;;;;;;;5.67;3.80;;;;;;;;;;5018327;28;20184;-56
2024/03/15 09:14:46;;;;;;;4.57;3.70;;;;;;;;;;5026978;28;20332;-57
2024/03/15 09:17:12;;;;;;;4.37;3.70;;;;;;;;;;5018038;28;20428;-57
2024/03/15 09:19:40;;;;;;;3.50;3.20;;;;;;;;;;5016000;28;20165;-60
2024/03/15 09:22:06;;;;;;;5.60;3.50;;;;;;;;;;5016660;28;20216;-62
2024/03/15 09:24:32;;;;;;;4.77;3.57;;;;;;;;;;5019867;28;20527;-62
2024/03/15 09:26:59;;;;;;;5.20;4.70;;;;;;;;;;5019873;28;20414;-62
2024/03/15 09:29:25;;;;;;;8.47;4.20;;;;;;;;;;5023263;28;20729;-62
2024/03/15 09:31:54;;;;;;;5.10;3.80;;;;;;;;;;5011849;28;20270;-62
2024/03/15 09:34:22;;;;;;;4.47;3.80;;;;;;;;;;5016448;28;20191;-62
2024/03/15 09:36:48;;;;;;;4.30;3.90;;;;;;;;;;5017040;28;20263;-62
2024/03/15 09:39:15;;;;;;;5.87;4.20;;;;;;;;;;5013799;28;20185;-62
2024/03/15 09:41:42;;;;;;;5.83;3.40;;;;;;;;;;5013738;28;20243;-62
2024/03/15 09:44:13;;;;;;;3.67;3.37;;;;;;;;;;5024165;28;20209;-61
2024/03/15 09:46:39;;;;;;;6.87;3.80;;;;;;;;;;5013617;28;20286;-61
2024/03/15 09:49:05;;;;;;;6.30;3.53;;;;;;;;;;5026543;28;20189;-62
2024/03/15 09:51:32;;;;;;;4.10;3.40;;;;;;;;;;5019040;28;20193;-62
2024/03/15 09:54:02;;;;;;;4.83;3.10;;;;;;;;;;5023542;28;20328;-64
2024/03/15 09:56:29;;;;;;;4.20;3.00;;;;;;;;;;5024601;28;20248;-58
2024/03/15 09:58:57;;;;;;;4.23;3.03;;;;;;;;;;5028638;28;20640;-55
2024/03/15 10:01:23;;;;;;;4.40;3.07;;;;;;;;;;5027785;28;20219;-58
2024/03/15 10:03:49;;;;;;;3.07;2.77;;;;;;;;;;5028854;28;20174;-58
2024/03/15 10:06:16;;;;;;;3.70;2.73;;;;;;;;;;5027952;28;20193;-58
2024/03/15 10:08:43;;;;;;;6.77;2.90;;;;;;;;;;5012272;28;20188;-58
2024/03/15 10:11:09;;;;;;;6.40;2.90;;;;;;;;;;5009813;28;20243;-58
2024/03/15 10:13:35;;;;;;;3.20;2.70;;;;;;;;;;5022178;28;20326;-58
2024/03/15 10:16:04;;;;;;;3.10;2.33;;;;;;;;;;5023779;28;20320;-57
2024/03/15 10:18:34;;;;;;;4.70;3.13;;;;;;;;;;5011336;28;20194;-58
2024/03/15 10:21:00;;;;;;;3.77;3.23;;;;;;;;;;5011638;28;20225;-58
2024/03/15 10:23:26;;;;;;;4.40;2.97;;;;;;;;;;5020128;28;20167;-58
2024/03/15 10:25:53;;;;;;;2.50;2.30;;;;;;;;;;5025910;28;20216;-58
2024/03/15 10:28:22;;;;;;;4.03;2.60;;;;;;;;;;5020749;28;20202;-57
2024/03/15 10:30:49;;;;;;;4.50;2.50;;;;;;;;;;5019557;28;20273;-58
2024/03/15 10:33:15;;;;;;;3.47;2.30;;;;;;;;;;5020048;28;20593;-58
2024/03/15 10:35:42;;;;;;;3.30;2.97;;;;;;;;;;5017675;28;20670;-58
2024/03/15 10:38:12;;;;;;;4.53;2.23;;;;;;;;;;5012184;28;20189;-57
2024/03/15 10:40:38;;;;;;;6.67;2.30;;;;;;;;;;5019123;28;20208;-58
2024/03/15 10:43:08;;;;;;;4.90;2.47;;;;;;;;;;5021784;28;20312;-58
2024/03/15 10:45:40;;;;;;;3.23;2.33;;;;;;;;;;5009718;28;20163;-58
2024/03/15 10:48:10;;;;;;;3.03;2.23;;;;;;;;;;5013195;28;20186;-58
2024/03/15 10:50:36;;;;;;;3.53;2.27;;;;;;;;;;5010968;28;20186;-58
2024/03/15 10:53:09;;;;;;;3.23;2.13;;;;;;;;;;5015225;28;20186;-57
2024/03/15 10:55:35;;;;;;;5.73;2.53;;;;;;;;;;5011061;28;20262;-58
2024/03/15 10:58:06;;;;;;;2.43;2.03;;;;;;;;;;5012639;28;20198;-58
2024/03/15 11:00:32;;;;;;;3.67;2.53;;;;;;;;;;5008959;28;20174;-58
2024/03/15 11:03:13;;;;;;;2.53;2.10;;;;;;;;;;5012451;28;20312;-58
2024/03/15 11:05:39;;;;;;;2.77;2.30;;;;;;;;;;5009153;28;20163;-58
2024/03/15 11:08:08;;;;;;;4.17;2.10;;;;;;;;;;5013892;28;20181;-57
2024/03/15 11:10:36;;;;;;;3.83;2.40;;;;;;;;;;5018982;28;20270;-58
2024/03/15 11:19:14;;;;;;;5.27;2.20;;;;;;;;;;5010558;28;20672;-55
2024/03/15 11:21:40;;;;;;;3.83;2.17;;;;;;;;;;5028752;28;20222;-54
2024/03/15 11:24:07;;;;;;;4.20;2.73;;;;;;;;;;5023294;28;20591;-53
2024/03/15 11:26:33;;;;;;;7.17;2.30;;;;;;;;;;5015870;28;20281;-54
2024/03/15 11:28:59;;;;;;;2.60;2.40;;;;;;;;;;5020585;28;20194;-55
2024/03/15 11:31:28;;;;;;;2.37;2.10;;;;;;;;;;5013304;28;20197;-52
2024/03/15 11:33:55;;;;;;;3.33;2.00;;;;;;;;;;5018567;28;20270;-56
2024/03/15 11:36:22;;;;;;;4.93;2.57;;;;;;;;;;5018485;28;20198;-50
2024/03/15 11:38:50;;;;;;;3.37;2.30;;;;;;;;;;5022037;28;20594;-52
2024/03/15 11:41:17;;;;;;;4.30;2.67;;;;;;;;;;5017502;28;20663;-52
2024/03/15 11:43:43;;;;;;;7.23;3.10;;;;;;;;;;5015741;28;20263;-52
2024/03/15 11:46:09;;;;;;;3.90;2.70;;;;;;;;;;5016785;28;20240;-52
2024/03/15 11:48:35;;;;;;;3.47;2.43;;;;;;;;;;5017593;28;20290;-55
2024/03/15 11:51:01;;;;;;;2.00;1.90;;;;;;;;;;5018796;28;20269;-53
2024/03/15 11:53:27;;;;;;;4.53;2.23;;;;;;;;;;5016356;28;20186;-53
2024/03/15 11:55:53;;;;;;;2.67;2.00;;;;;;;;;;5017516;28;20281;-52
2024/03/15 11:58:24;;;;;;;2.60;2.03;;;;;;;;;;5017845;28;20197;-54
2024/03/15 12:00:51;;;;;;;2.13;1.80;;;;;;;;;;5017360;28;20186;-52
2024/03/15 12:03:18;;;;;;;1.90;1.80;;;;;;;;;;5017878;28;20196;-53
2024/03/15 12:05:45;;;;;;;2.57;1.90;;;;;;;;;;5022012;28;20651;-53
2024/03/15 12:08:13;;;;;;;2.73;1.80;;;;;;;;;;5021135;28;20649;-52
2024/03/15 12:10:39;;;;;;;2.63;2.27;;;;;;;;;;5022018;28;20196;-53
2024/03/15 12:13:21;;;;;;;2.67;2.10;;;;;;;;;;5018902;28;20239;-52
2024/03/15 12:15:48;;;;;;;2.97;1.90;;;;;;;;;;5016277;28;20190;-53
2024/03/15 12:18:14;;;;;;;3.40;2.40;;;;;;;;;;5014985;28;20285;-52
2024/03/15 12:20:42;;;;;;;3.87;2.73;;;;;;;;;;5018297;28;20237;-53
2024/03/15 12:23:12;;;;;;;2.70;2.17;;;;;;;;;;5014506;28;20575;-53
2024/03/15 12:25:38;;;;;;;4.03;2.63;;;;;;;;;;5020539;28;20360;-53
2024/03/15 12:28:08;;;;;;;3.43;2.33;;;;;;;;;;5014391;28;20177;-56
2024/03/15 12:30:34;;;;;;;4.33;1.90;;;;;;;;;;5015717;28;20304;-57
2024/03/15 12:33:02;;;;;;;3.40;1.80;;;;;;;;;;5014019;28;20239;-56
2024/03/15 12:35:28;;;;;;;2.77;1.93;;;;;;;;;;5018415;28;20656;-56
2024/03/15 12:37:54;;;;;;;3.47;1.90;;;;;;;;;;5014498;28;20804;-55
2024/03/15 12:40:20;;;;;;;2.80;1.60;;;;;;;;;;5018690;28;20246;-56
2024/03/15 12:42:46;;;;;;;2.53;2.07;;;;;;;;;;5016612;28;20202;-56
2024/03/15 12:45:14;;;;;;;4.10;2.10;;;;;;;;;;5015772;28;20175;-56
2024/03/15 12:47:41;;;;;;;2.93;1.97;;;;;;;;;;5014912;28;20217;-56
2024/03/15 12:50:20;;;;;;;3.90;1.77;;;;;;;;;;5017098;28;20576;-55
2024/03/15 12:52:46;;;;;;;3.57;1.73;;;;;;;;;;5018073;28;20245;-57
2024/03/15 13:27:44;;;;;;;1.63;1.53;;;;;;;;;;4872364;29;20896;-52
2024/03/15 13:30:12;;;;;;;3.80;1.53;;;;;;;;;;4879311;29;20167;-52
2024/03/15 13:32:41;;;;;;;2.67;2.00;;;;;;;;;;4877151;29;20190;-51
2024/03/15 13:35:17;;;;;;;2.63;1.90;;;;;;;;;;4880692;29;20172;-53
2024/03/15 13:37:44;;;;;;;3.27;2.27;;;;;;;;;;4892692;29;20214;-52
2024/03/15 13:40:15;;;;;;;3.13;2.00;;;;;;;;;;4874503;29;20171;-53
2024/03/15 13:42:42;;;;;;;2.27;1.70;;;;;;;;;;4873615;29;20187;-54
2024/03/15 13:45:15;;;;;;;3.20;1.63;;;;;;;;;;4875331;29;20201;-52
2024/03/15 13:47:41;;;;;;;3.67;1.73;;;;;;;;;;4883370;29;20188;-53
2024/03/15 13:50:10;;;;;;;3.07;1.47;;;;;;;;;;4881269;29;20952;-53
2024/03/15 13:52:36;;;;;;;3.00;1.40;;;;;;;;;;4881738;29;20286;-52
2024/03/15 13:55:08;;;;;;;1.53;1.27;;;;;;;;;;4878865;29;20218;-52
2024/03/15 13:57:35;;;;;;;2.77;1.70;;;;;;;;;;4879963;29;20699;-52
2024/03/15 14:00:01;;;;;;;1.47;1.30;;;;;;;;;;4879868;29;20655;-51
2024/03/15 14:02:28;;;;;;;1.50;1.40;;;;;;;;;;4880523;29;20364;-52
2024/03/15 14:04:55;;;;;;;1.73;1.23;;;;;;;;;;4880517;29;20186;-51
2024/03/15 14:07:21;;;;;;;3.03;1.60;;;;;;;;;;4879887;29;20191;-51
2024/03/15 14:09:47;;;;;;;2.73;2.43;;;;;;;;;;4877075;29;20188;-50
2024/03/15 14:12:13;;;;;;;3.73;1.70;;;;;;;;;;4887519;29;20189;-51
2024/03/15 14:14:39;;;;;;;2.00;1.80;;;;;;;;;;4878446;29;20198;-50
2024/03/15 14:17:05;;;;;;;1.73;1.63;;;;;;;;;;4878880;29;20685;-51
2024/03/15 14:19:32;;;;;;;1.87;1.53;;;;;;;;;;4877903;29;20187;-51
2024/03/15 14:25:02;;;;;;;3.57;1.73;;;;;;;;;;4843605;29;20849;-53
2024/03/15 14:27:28;;;;;;;2.20;1.50;;;;;;;;;;4875497;29;20252;-50
2024/03/15 14:29:54;;;;;;;2.13;1.70;;;;;;;;;;4875822;29;22134;-55
2024/03/15 14:32:20;;;;;;;2.37;1.47;;;;;;;;;;4881670;29;20315;-56
2024/03/15 14:34:48;;;;;;;2.90;1.37;;;;;;;;;;4874985;29;20179;-55
2024/03/15 14:37:14;;;;;;;1.40;1.30;;;;;;;;;;4881154;29;20694;-55
2024/03/15 14:39:44;;;;;;;1.40;1.30;;;;;;;;;;4874853;29;20189;-56
2024/03/15 14:42:10;;;;;;;3.40;1.30;;;;;;;;;;4877067;29;20529;-55
2024/03/15 14:44:36;;;;;;;1.67;1.27;;;;;;;;;;4886142;29;20179;-55
2024/03/15 14:47:02;;;;;;;1.50;1.30;;;;;;;;;;4881445;29;20202;-54
2024/03/15 14:49:28;;;;;;;1.43;1.10;;;;;;;;;;4875587;29;20520;-55
2024/03/15 14:51:54;;;;;;;1.90;1.23;;;;;;;;;;4881629;29;20190;-55
2024/03/15 14:54:20;;;;;;;2.33;1.53;;;;;;;;;;4873295;29;20187;-56
2024/03/15 14:56:47;;;;;;;3.30;1.63;;;;;;;;;;4873681;29;20215;-56
2024/03/15 14:59:13;;;;;;;2.80;1.27;;;;;;;;;;4870115;29;20196;-56
2024/03/15 15:01:39;;;;;;;6.63;1.40;;;;;;;;;;4877464;29;20206;-57
2024/03/15 15:04:05;;;;;;;2.23;1.50;;;;;;;;;;4874459;29;20670;-59
2024/03/15 15:06:31;;;;;;;2.33;1.47;;;;;;;;;;4873127;29;20726;-60
2024/03/15 15:08:57;;;;;;;3.83;1.63;;;;;;;;;;4875067;29;20667;-62
2024/03/15 15:11:23;;;;;;;2.10;1.57;;;;;;;;;;4874363;29;20187;-63
2024/03/15 15:13:52;;;;;;;4.83;1.90;;;;;;;;;;4870145;29;20191;-62
2024/03/15 15:16:18;;;;;;;3.07;2.00;;;;;;;;;;4873090;29;20554;-59
2024/03/15 15:18:44;;;;;;;2.63;1.50;;;;;;;;;;4871312;29;20278;-61
2024/03/15 15:21:15;;;;;;;6.07;2.00;;;;;;;;;;4874895;29;20275;-62
2024/03/15 15:23:41;;;;;;;2.80;1.50;;;;;;;;;;4876117;29;20205;-61
2024/03/15 15:26:07;;;;;;;3.13;1.83;;;;;;;;;;4873549;29;20231;-61